Benton, Mississippi
Current Conditions -  °F | °C
As of 11:53 PM on Sunday 25 Jan 2015 (Local Time) from KHKS Reporting Station
Clear Clear  
Wind Chill: 46°   Ceiling: Unl
Heat Index: 49°   Visibility: 10mi
Dew Point: 34°   Wind: 7mph
Humidity: 56%   Direction: 340°NNW
Pressure: 29.97"   Gusts: 16mph
Location:  32.83°N, 90.26°W
Report Text: KHKS 260553Z AUTO 34006G14KT 10SM CLR 09/01 A2997 RMK AO2 SLP143 T00940011 10150 20094 402000022 53021
Loading
Personal Weather Stations






























Interactive Weather Map New forecast layout! Learn more

10-Day Weather Forecast

Advertisements
Track Severe Weather on mobile